CheckWX is a tool to help pilots better visualize weather data.  It is not intended as a substitute for an official pre-flight weather briefing.

18:05:43 UTC

DTTD METAR
Remada Air Base Airport
Remada, Tunisia
Current

1 hour ago

DTTD 241700Z 28006KT 240V320 6000 NSC 34/M07 Q1010 RMK SIROCCO
Observed
Apr-24 @ 17:00 UTC
Wind
  • 280° at 6 KTS
Visibility
6,003 meters
Flight Rules
MVFR
Cloud Levels
  • Clear skies
Temperature
34°C / 93°F
Dewpoint
-7°C / 19°F
Humidity
7%
Altimeter
29.82" Hg
Pressure
1009.92 hPa
Previous

2 hours ago

DTTD 241600Z 26012KT 210V280 5000 NSC 35/M06 Q1009 RMK SIROCCO
Observed
Apr-24 @ 16:00 UTC
Wind
  • 260° at 12 KTS
Visibility
5,005 meters
Flight Rules
MVFR
Cloud Levels
  • Clear skies
Temperature
35°C / 95°F
Dewpoint
-6°C / 21°F
Humidity
7%
Altimeter
29.79" Hg
Pressure
1008.92 hPa
Previous

3 hours ago

DTTD 241500Z 27006KT 200V330 5000 NSC 36/M05 Q1009 RMK SIROCCO
Observed
Apr-24 @ 15:00 UTC
Wind
  • 270° at 6 KTS
Visibility
5,005 meters
Flight Rules
MVFR
Cloud Levels
  • Clear skies
Temperature
36°C / 97°F
Dewpoint
-5°C / 23°F
Humidity
7%
Altimeter
29.79" Hg
Pressure
1008.92 hPa